Time;durP1;ratioP1;P1;durP2;ratioP2;P2;SDS_P1;SDS_P2;PMS_P1;PMS_P2;Temp;Humidity;BMP_temperature;BMP_pressure;BME280_temperature;BME280_humidity;BME280_pressure;Samples;Min_cycle;Max_cycle;Signal;HPM_P1;HPM_P2
2022/05/10 00:01:37;;;;;;;8.93;5.43;;;;;;;;;;5105777;28;20123;-68
2022/05/10 00:04:04;;;;;;;11.05;5.93;;;;;;;;;;5098351;27;20514;-68
2022/05/10 00:06:33;;;;;;;9.75;6.47;;;;;;;;;;5102522;27;20047;-68
2022/05/10 00:08:59;;;;;;;11.30;4.95;;;;;;;;;;5109922;28;20035;-68
2022/05/10 00:11:25;;;;;;;10.68;5.82;;;;;;;;;;5109062;28;20035;-68
2022/05/10 00:13:51;;;;;;;9.75;6.68;;;;;;;;;;5107683;27;20492;-69
2022/05/10 00:16:18;;;;;;;12.43;5.50;;;;;;;;;;5110626;27;20598;-68
2022/05/10 00:18:45;;;;;;;13.48;6.25;;;;;;;;;;5088088;28;20036;-68
2022/05/10 00:21:11;;;;;;;14.43;5.07;;;;;;;;;;5106508;28;20039;-69
2022/05/10 00:23:38;;;;;;;12.30;5.30;;;;;;;;;;5107518;28;20569;-69
2022/05/10 00:26:04;;;;;;;15.27;6.50;;;;;;;;;;5098319;28;20512;-68
2022/05/10 00:28:30;;;;;;;11.10;6.03;;;;;;;;;;5103360;28;20447;-69
2022/05/10 00:30:57;;;;;;;10.60;6.53;;;;;;;;;;5106194;28;20460;-69
2022/05/10 00:33:26;;;;;;;10.90;5.53;;;;;;;;;;5105923;28;20046;-69
2022/05/10 00:35:52;;;;;;;13.20;6.95;;;;;;;;;;5110717;28;20039;-69
2022/05/10 00:38:20;;;;;;;8.98;5.32;;;;;;;;;;5108575;28;20054;-68
2022/05/10 00:40:46;;;;;;;9.20;5.93;;;;;;;;;;5109701;27;20473;-69
2022/05/10 00:43:28;;;;;;;10.57;5.68;;;;;;;;;;5111496;28;20117;-69
2022/05/10 00:45:54;;;;;;;14.00;6.13;;;;;;;;;;5111062;27;20048;-68
2022/05/10 00:48:39;;;;;;;15.30;7.25;;;;;;;;;;5114699;27;20048;-68
2022/05/10 00:51:09;;;;;;;10.52;6.85;;;;;;;;;;5104824;27;20491;-69
2022/05/10 00:53:41;;;;;;;10.02;5.85;;;;;;;;;;5104448;27;20036;-69
2022/05/10 00:56:11;;;;;;;14.73;7.90;;;;;;;;;;5108005;27;20177;-69
2022/05/10 00:58:42;;;;;;;13.35;6.97;;;;;;;;;;5115711;27;20039;-68
2022/05/10 01:01:10;;;;;;;12.55;8.05;;;;;;;;;;5114205;27;20048;-69
2022/05/10 01:03:49;;;;;;;16.27;7.65;;;;;;;;;;5111593;28;20035;-68
2022/05/10 01:06:21;;;;;;;13.10;6.22;;;;;;;;;;5111521;27;20035;-69
2022/05/10 01:08:50;;;;;;;14.35;7.47;;;;;;;;;;5103107;27;20039;-68
2022/05/10 01:11:26;;;;;;;13.88;7.22;;;;;;;;;;5110392;28;20088;-68
2022/05/10 01:13:58;;;;;;;14.50;8.23;;;;;;;;;;5115386;27;20035;-69
2022/05/10 01:16:25;;;;;;;13.70;9.05;;;;;;;;;;5117706;27;20043;-68
2022/05/10 01:18:51;;;;;;;13.27;7.45;;;;;;;;;;5112548;27;20044;-68
2022/05/10 01:21:22;;;;;;;11.85;7.32;;;;;;;;;;5093913;28;20047;-69
2022/05/10 01:24:11;;;;;;;11.35;6.85;;;;;;;;;;5103166;28;20040;-69
2022/05/10 01:26:37;;;;;;;14.10;7.50;;;;;;;;;;5107375;28;20039;-68
2022/05/10 01:29:13;;;;;;;11.60;7.93;;;;;;;;;;5112068;28;20492;-68
2022/05/10 01:31:42;;;;;;;11.80;7.45;;;;;;;;;;5111096;28;20043;-69
2022/05/10 01:34:10;;;;;;;12.85;7.60;;;;;;;;;;5109380;27;20624;-69
2022/05/10 01:36:42;;;;;;;14.40;7.80;;;;;;;;;;5111805;28;20573;-68
2022/05/10 01:39:18;;;;;;;14.02;8.70;;;;;;;;;;5110479;28;20088;-68
2022/05/10 01:42:04;;;;;;;13.68;8.00;;;;;;;;;;5109832;27;20417;-69
2022/05/10 01:44:46;;;;;;;13.95;7.53;;;;;;;;;;5100775;27;20087;-69
2022/05/10 01:47:14;;;;;;;9.40;7.03;;;;;;;;;;5108041;27;20119;-69
2022/05/10 01:49:46;;;;;;;13.60;8.43;;;;;;;;;;5114554;27;20489;-69
2022/05/10 01:52:17;;;;;;;13.75;7.68;;;;;;;;;;5117444;27;20103;-68
2022/05/10 01:54:46;;;;;;;17.95;9.40;;;;;;;;;;5113931;27;20493;-69
2022/05/10 01:57:15;;;;;;;14.60;7.55;;;;;;;;;;5114565;27;20542;-69
2022/05/10 01:59:44;;;;;;;14.35;9.65;;;;;;;;;;5110834;27;20466;-69
2022/05/10 02:02:11;;;;;;;18.38;9.07;;;;;;;;;;5110475;28;20380;-68
2022/05/10 02:04:39;;;;;;;14.55;7.93;;;;;;;;;;5094422;28;20504;-69
2022/05/10 02:07:11;;;;;;;13.82;8.82;;;;;;;;;;5111028;27;20036;-69
2022/05/10 02:09:42;;;;;;;14.73;8.70;;;;;;;;;;5117537;27;20684;-68
2022/05/10 02:12:13;;;;;;;17.00;9.32;;;;;;;;;;5101091;27;20043;-68
2022/05/10 02:14:42;;;;;;;16.15;9.63;;;;;;;;;;5111313;27;20420;-69
2022/05/10 02:17:16;;;;;;;16.50;8.93;;;;;;;;;;5101724;28;20067;-68
2022/05/10 02:19:58;;;;;;;14.48;9.48;;;;;;;;;;5110035;27;20071;-69
2022/05/10 02:22:43;;;;;;;23.42;9.77;;;;;;;;;;5107492;27;20505;-69
2022/05/10 02:25:20;;;;;;;12.75;8.90;;;;;;;;;;5111586;27;20039;-68
2022/05/10 02:27:48;;;;;;;15.10;9.50;;;;;;;;;;5111538;27;20052;-69
2022/05/10 02:30:16;;;;;;;16.20;10.48;;;;;;;;;;5104074;28;20485;-69
2022/05/10 02:33:06;;;;;;;13.82;9.00;;;;;;;;;;5101202;27;20116;-68
2022/05/10 02:35:40;;;;;;;17.48;9.77;;;;;;;;;;5108027;28;20416;-68
2022/05/10 02:38:07;;;;;;;16.98;8.27;;;;;;;;;;5104755;27;20032;-69
2022/05/10 02:40:33;;;;;;;14.20;10.15;;;;;;;;;;5114695;27;20536;-69
2022/05/10 02:43:00;;;;;;;20.10;10.13;;;;;;;;;;5108878;27;20059;-68
2022/05/10 02:45:27;;;;;;;15.52;10.02;;;;;;;;;;5109297;28;20044;-69
2022/05/10 02:47:53;;;;;;;16.33;9.93;;;;;;;;;;5107104;27;20046;-69
2022/05/10 02:50:27;;;;;;;15.75;8.40;;;;;;;;;;5108008;28;20040;-69
2022/05/10 02:52:53;;;;;;;15.75;10.55;;;;;;;;;;5109487;28;20085;-69
2022/05/10 02:55:26;;;;;;;20.05;9.90;;;;;;;;;;5110058;27;20039;-68
2022/05/10 02:57:53;;;;;;;19.05;10.82;;;;;;;;;;5108549;27;20039;-68
2022/05/10 03:00:20;;;;;;;16.38;8.80;;;;;;;;;;5113255;27;20045;-69
2022/05/10 03:02:48;;;;;;;15.35;9.10;;;;;;;;;;5081052;27;20127;-69
2022/05/10 03:05:14;;;;;;;16.92;8.55;;;;;;;;;;5099869;27;20069;-69
2022/05/10 03:07:41;;;;;;;14.68;8.73;;;;;;;;;;5111825;27;20413;-68
2022/05/10 03:10:08;;;;;;;15.20;8.73;;;;;;;;;;5113816;27;20495;-69
2022/05/10 03:12:34;;;;;;;13.80;8.98;;;;;;;;;;5112358;27;20089;-68
2022/05/10 03:15:00;;;;;;;19.08;9.80;;;;;;;;;;5112786;27;20467;-69
2022/05/10 03:17:26;;;;;;;15.07;8.90;;;;;;;;;;5112249;27;20046;-69
2022/05/10 03:19:53;;;;;;;15.52;9.50;;;;;;;;;;5107534;28;20127;-68
2022/05/10 03:22:19;;;;;;;15.45;10.32;;;;;;;;;;5113858;27;20040;-68
2022/05/10 03:24:45;;;;;;;15.63;9.10;;;;;;;;;;5114609;27;20114;-68
2022/05/10 03:27:12;;;;;;;15.00;9.88;;;;;;;;;;5113528;27;20079;-69
2022/05/10 03:29:39;;;;;;;16.30;9.43;;;;;;;;;;5112454;27;20050;-69
2022/05/10 03:32:06;;;;;;;15.35;10.13;;;;;;;;;;5100179;27;20101;-69
2022/05/10 03:37:17;;;;;;;16.02;9.70;;;;;;;;;;5112907;27;20156;-69
2022/05/10 03:39:43;;;;;;;12.70;8.95;;;;;;;;;;5111918;27;20581;-69
2022/05/10 03:42:10;;;;;;;18.15;9.35;;;;;;;;;;5107333;27;20050;-69
2022/05/10 03:44:36;;;;;;;15.25;9.00;;;;;;;;;;5107569;27;20059;-68
2022/05/10 03:47:03;;;;;;;13.57;9.25;;;;;;;;;;5113121;27;20047;-68
2022/05/10 03:49:29;;;;;;;13.82;9.68;;;;;;;;;;5103228;27;20036;-69
2022/05/10 03:51:55;;;;;;;14.07;9.20;;;;;;;;;;5115023;27;20114;-69
2022/05/10 03:54:22;;;;;;;16.88;10.18;;;;;;;;;;5111675;27;20075;-69
2022/05/10 03:56:48;;;;;;;15.05;8.80;;;;;;;;;;5093562;28;20055;-68
2022/05/10 03:59:14;;;;;;;14.23;9.00;;;;;;;;;;5109143;28;20524;-69
2022/05/10 04:01:41;;;;;;;17.85;9.90;;;;;;;;;;5107581;28;20067;-68
2022/05/10 04:04:07;;;;;;;16.75;9.45;;;;;;;;;;5103442;28;20035;-69
2022/05/10 04:06:33;;;;;;;16.88;10.63;;;;;;;;;;5108086;27;20036;-68
2022/05/10 04:08:59;;;;;;;14.82;9.60;;;;;;;;;;5106988;28;20044;-68
2022/05/10 04:11:26;;;;;;;15.68;8.55;;;;;;;;;;5109165;28;20458;-68
2022/05/10 04:13:52;;;;;;;14.82;10.10;;;;;;;;;;5112576;28;20039;-69
2022/05/10 04:16:18;;;;;;;15.13;8.25;;;;;;;;;;5107915;27;20042;-68
2022/05/10 04:18:46;;;;;;;15.07;9.02;;;;;;;;;;5112146;27;20068;-69
2022/05/10 04:21:12;;;;;;;14.30;8.85;;;;;;;;;;5104479;28;20443;-69
2022/05/10 04:23:39;;;;;;;13.18;9.80;;;;;;;;;;5111767;28;20043;-69
2022/05/10 04:26:06;;;;;;;18.10;10.07;;;;;;;;;;5111495;28;20071;-68
2022/05/10 04:28:33;;;;;;;12.68;9.32;;;;;;;;;;5111134;28;20096;-69
2022/05/10 04:30:59;;;;;;;16.20;9.85;;;;;;;;;;5100528;28;20104;-69
2022/05/10 04:33:26;;;;;;;11.95;8.48;;;;;;;;;;5101364;27;20047;-69
2022/05/10 04:35:52;;;;;;;15.18;8.95;;;;;;;;;;5097721;28;20051;-69
2022/05/10 04:38:18;;;;;;;14.68;9.45;;;;;;;;;;5107780;28;20126;-69
2022/05/10 04:43:30;;;;;;;13.80;8.73;;;;;;;;;;5108230;28;20044;-69
2022/05/10 04:45:58;;;;;;;15.77;9.30;;;;;;;;;;5109043;28;20069;-68
2022/05/10 04:48:24;;;;;;;16.00;9.43;;;;;;;;;;5110250;28;20376;-70
2022/05/10 04:50:50;;;;;;;13.73;9.55;;;;;;;;;;5100320;28;20040;-69
2022/05/10 04:53:16;;;;;;;14.73;9.90;;;;;;;;;;5095724;28;20127;-69
2022/05/10 04:55:42;;;;;;;13.27;8.55;;;;;;;;;;5094837;28;20043;-69
2022/05/10 04:58:09;;;;;;;13.35;8.90;;;;;;;;;;5093588;28;20485;-69
2022/05/10 05:00:35;;;;;;;15.90;9.85;;;;;;;;;;5094598;28;20050;-69
2022/05/10 05:03:01;;;;;;;16.77;9.90;;;;;;;;;;5095790;28;20511;-69
2022/05/10 05:05:27;;;;;;;13.07;8.98;;;;;;;;;;5095778;28;20032;-69
2022/05/10 05:07:53;;;;;;;14.18;9.13;;;;;;;;;;5079061;28;20046;-69
2022/05/10 05:10:19;;;;;;;15.35;9.68;;;;;;;;;;5101500;28;20032;-69
2022/05/10 05:12:46;;;;;;;21.15;10.60;;;;;;;;;;5104031;27;20039;-69
2022/05/10 05:15:13;;;;;;;12.80;9.05;;;;;;;;;;5092655;28;20661;-69
2022/05/10 05:17:39;;;;;;;15.65;9.65;;;;;;;;;;5074851;28;20039;-69
2022/05/10 05:20:06;;;;;;;13.82;9.15;;;;;;;;;;5089315;28;20590;-69
2022/05/10 05:22:32;;;;;;;12.15;9.18;;;;;;;;;;5097784;28;20031;-69
2022/05/10 05:24:58;;;;;;;18.60;10.00;;;;;;;;;;5099171;28;20035;-69
2022/05/10 05:27:24;;;;;;;15.77;9.82;;;;;;;;;;5083183;28;20032;-69
2022/05/10 05:29:52;;;;;;;18.75;9.93;;;;;;;;;;5094148;27;20089;-69
2022/05/10 05:32:21;;;;;;;18.65;9.90;;;;;;;;;;5094707;27;20056;-69
2022/05/10 05:34:48;;;;;;;19.10;10.00;;;;;;;;;;5096552;27;20151;-69
2022/05/10 05:39:59;;;;;;;21.65;9.35;;;;;;;;;;5095829;27;20036;-69
2022/05/10 05:42:25;;;;;;;18.52;10.65;;;;;;;;;;5097798;27;20044;-69
2022/05/10 05:44:52;;;;;;;17.80;10.57;;;;;;;;;;5091777;27;20130;-70
2022/05/10 05:47:18;;;;;;;19.70;9.27;;;;;;;;;;5094393;28;20028;-69
2022/05/10 05:49:44;;;;;;;14.82;8.35;;;;;;;;;;5111363;27;20048;-69
2022/05/10 05:52:11;;;;;;;19.55;8.82;;;;;;;;;;5115406;27;20445;-69
2022/05/10 05:54:37;;;;;;;13.43;9.43;;;;;;;;;;5112910;27;20139;-69
2022/05/10 05:57:05;;;;;;;14.27;8.98;;;;;;;;;;5106972;28;20039;-69
2022/05/10 05:59:32;;;;;;;16.63;9.10;;;;;;;;;;5113611;27;20054;-69
2022/05/10 06:01:58;;;;;;;19.67;9.00;;;;;;;;;;5101977;27;20056;-69
2022/05/10 06:04:25;;;;;;;14.20;10.02;;;;;;;;;;5107938;27;20115;-70
2022/05/10 06:06:51;;;;;;;15.88;9.27;;;;;;;;;;5111622;27;20064;-69
2022/05/10 06:09:20;;;;;;;17.08;10.82;;;;;;;;;;5114913;27;20140;-70
2022/05/10 06:11:47;;;;;;;13.48;8.73;;;;;;;;;;5111078;27;20054;-69
2022/05/10 06:14:13;;;;;;;11.10;8.48;;;;;;;;;;5107140;27;20410;-69
2022/05/10 06:16:42;;;;;;;12.98;9.75;;;;;;;;;;5106451;27;20036;-69
2022/05/10 06:19:12;;;;;;;13.07;9.13;;;;;;;;;;5106337;27;20086;-70
2022/05/10 06:21:41;;;;;;;11.20;8.90;;;;;;;;;;5083760;28;20384;-69
2022/05/10 06:24:08;;;;;;;12.52;8.77;;;;;;;;;;5097738;27;20082;-70
2022/05/10 06:26:34;;;;;;;14.85;9.35;;;;;;;;;;5086484;28;20084;-69
2022/05/10 06:29:00;;;;;;;14.48;8.68;;;;;;;;;;5111088;27;20040;-69
2022/05/10 06:31:26;;;;;;;14.15;9.27;;;;;;;;;;5109874;28;20039;-70
2022/05/10 06:33:53;;;;;;;13.90;8.45;;;;;;;;;;5106355;28;20542;-66
2022/05/10 06:36:19;;;;;;;14.07;7.72;;;;;;;;;;5113337;27;20042;-66
2022/05/10 06:38:46;;;;;;;15.55;8.38;;;;;;;;;;5114026;27;20054;-66
2022/05/10 06:41:12;;;;;;;13.15;8.43;;;;;;;;;;5102730;27;20079;-66
2022/05/10 06:43:38;;;;;;;15.07;9.15;;;;;;;;;;5109148;28;20060;-67
2022/05/10 06:46:12;;;;;;;15.95;8.30;;;;;;;;;;5110364;28;20101;-66
2022/05/10 06:48:39;;;;;;;11.75;8.38;;;;;;;;;;5109291;28;20118;-66
2022/05/10 06:51:08;;;;;;;14.10;7.97;;;;;;;;;;5107903;28;20051;-66
2022/05/10 06:53:34;;;;;;;11.63;8.00;;;;;;;;;;5109074;28;20093;-66
2022/05/10 06:56:01;;;;;;;16.27;8.32;;;;;;;;;;5110695;28;20386;-66
2022/05/10 06:58:28;;;;;;;12.70;7.65;;;;;;;;;;5107921;28;20324;-66
2022/05/10 07:00:54;;;;;;;13.63;7.20;;;;;;;;;;5110089;28;20035;-66
2022/05/10 07:03:26;;;;;;;14.50;7.68;;;;;;;;;;5108529;28;20041;-66
2022/05/10 07:05:52;;;;;;;11.05;8.80;;;;;;;;;;5107618;28;20119;-66
2022/05/10 07:08:18;;;;;;;13.85;7.78;;;;;;;;;;5109916;28;20063;-67
2022/05/10 07:10:45;;;;;;;9.68;7.25;;;;;;;;;;5112333;27;20100;-66
2022/05/10 07:13:15;;;;;;;13.77;8.05;;;;;;;;;;5112527;27;20446;-67
2022/05/10 07:15:41;;;;;;;13.80;8.40;;;;;;;;;;5108592;28;20039;-67
2022/05/10 07:18:07;;;;;;;12.82;8.10;;;;;;;;;;5110122;28;20508;-66
2022/05/10 07:20:33;;;;;;;11.75;8.02;;;;;;;;;;5110979;27;20043;-66
2022/05/10 07:23:00;;;;;;;14.30;8.55;;;;;;;;;;5108105;27;20028;-66
2022/05/10 07:25:28;;;;;;;14.68;7.72;;;;;;;;;;5108380;28;20161;-67
2022/05/10 07:27:55;;;;;;;14.85;8.85;;;;;;;;;;5113487;27;20489;-67
2022/05/10 07:30:22;;;;;;;13.77;8.88;;;;;;;;;;5110103;27;20055;-66
2022/05/10 07:32:48;;;;;;;13.23;8.38;;;;;;;;;;5108548;28;20137;-66
2022/05/10 07:35:14;;;;;;;15.10;8.23;;;;;;;;;;5106971;28;20103;-67
2022/05/10 07:37:41;;;;;;;16.70;8.52;;;;;;;;;;5109600;28;20040;-66
2022/05/10 07:40:08;;;;;;;14.43;8.68;;;;;;;;;;5107816;28;20039;-67
2022/05/10 07:42:36;;;;;;;13.23;8.13;;;;;;;;;;5112861;27;20070;-67
2022/05/10 07:45:03;;;;;;;12.82;8.30;;;;;;;;;;5108049;27;20085;-67
2022/05/10 07:47:29;;;;;;;9.48;7.72;;;;;;;;;;5109601;28;20512;-66
2022/05/10 07:49:55;;;;;;;11.02;7.32;;;;;;;;;;5110116;27;20060;-67
2022/05/10 07:52:21;;;;;;;14.90;7.43;;;;;;;;;;5108474;28;20039;-66
2022/05/10 07:54:47;;;;;;;14.50;7.07;;;;;;;;;;5107899;28;20401;-67
2022/05/10 07:57:13;;;;;;;10.80;7.20;;;;;;;;;;5109330;28;20054;-67
2022/05/10 07:59:39;;;;;;;10.57;7.22;;;;;;;;;;5106539;28;20047;-67
2022/05/10 08:02:06;;;;;;;14.05;7.95;;;;;;;;;;5112616;27;20235;-67
2022/05/10 08:04:32;;;;;;;10.05;6.43;;;;;;;;;;5109405;27;20044;-67
2022/05/10 08:06:58;;;;;;;12.13;8.13;;;;;;;;;;5110614;27;20044;-67
2022/05/10 08:09:24;;;;;;;10.25;6.95;;;;;;;;;;5111210;27;20082;-66
2022/05/10 08:11:50;;;;;;;11.32;6.78;;;;;;;;;;5111711;27;20366;-67
2022/05/10 08:14:17;;;;;;;11.68;6.88;;;;;;;;;;5111263;27;20127;-67
2022/05/10 08:16:43;;;;;;;13.88;6.43;;;;;;;;;;5110973;28;20488;-67
2022/05/10 08:19:09;;;;;;;13.68;7.22;;;;;;;;;;5108653;27;20166;-67
2022/05/10 08:21:35;;;;;;;14.07;6.38;;;;;;;;;;5113829;27;20035;-68
2022/05/10 08:24:02;;;;;;;10.60;6.43;;;;;;;;;;5104982;28;20040;-67
2022/05/10 08:26:28;;;;;;;14.10;6.55;;;;;;;;;;5110163;28;20039;-67
2022/05/10 08:28:54;;;;;;;13.73;6.38;;;;;;;;;;5112240;28;20085;-67
2022/05/10 08:31:20;;;;;;;15.50;6.10;;;;;;;;;;5111397;28;20039;-67
2022/05/10 08:33:47;;;;;;;9.60;6.03;;;;;;;;;;5106896;28;20127;-67
2022/05/10 08:36:13;;;;;;;15.00;6.15;;;;;;;;;;5106628;28;20055;-67
2022/05/10 08:38:40;;;;;;;11.02;6.20;;;;;;;;;;5084624;28;20043;-67
2022/05/10 08:41:12;;;;;;;10.63;6.28;;;;;;;;;;5110758;28;20036;-67
2022/05/10 08:44:04;;;;;;;9.65;6.38;;;;;;;;;;5105441;28;20047;-67
2022/05/10 08:46:36;;;;;;;13.40;6.38;;;;;;;;;;5089592;28;20048;-66
2022/05/10 08:49:19;;;;;;;15.07;7.15;;;;;;;;;;5093536;28;20047;-67
2022/05/10 08:51:45;;;;;;;13.68;6.80;;;;;;;;;;5108123;28;20048;-67
2022/05/10 08:54:12;;;;;;;11.95;6.78;;;;;;;;;;5108705;28;20039;-67
2022/05/10 08:56:41;;;;;;;11.90;7.20;;;;;;;;;;5110559;28;20079;-67
2022/05/10 08:59:15;;;;;;;13.20;7.10;;;;;;;;;;5110599;28;20051;-67
2022/05/10 09:01:55;;;;;;;9.55;5.78;;;;;;;;;;5093906;28;20555;-67
2022/05/10 09:04:41;;;;;;;16.10;6.20;;;;;;;;;;5112939;27;20050;-67
2022/05/10 09:07:25;;;;;;;20.80;5.82;;;;;;;;;;5107889;27;20035;-67
2022/05/10 09:09:51;;;;;;;15.50;6.95;;;;;;;;;;5116068;27;20043;-67
2022/05/10 09:12:20;;;;;;;13.38;6.70;;;;;;;;;;5115303;27;20047;-67
2022/05/10 09:15:10;;;;;;;9.98;6.13;;;;;;;;;;5116965;27;20438;-67
2022/05/10 09:17:36;;;;;;;13.77;6.15;;;;;;;;;;5096187;28;20035;-67
2022/05/10 09:20:04;;;;;;;12.32;6.05;;;;;;;;;;5110155;27;20547;-67
2022/05/10 09:22:48;;;;;;;13.27;7.15;;;;;;;;;;5108408;28;20513;-67
2022/05/10 09:25:28;;;;;;;11.65;6.10;;;;;;;;;;5115218;27;20063;-67
2022/05/10 09:27:54;;;;;;;10.73;6.07;;;;;;;;;;5115986;27;20489;-67
2022/05/10 09:30:29;;;;;;;13.23;6.68;;;;;;;;;;5112507;27;20039;-67
2022/05/10 09:35:59;;;;;;;16.80;5.55;;;;;;;;;;5112275;27;20288;-67
2022/05/10 09:38:25;;;;;;;11.13;5.55;;;;;;;;;;5114439;27;20237;-68
2022/05/10 09:40:52;;;;;;;20.67;6.55;;;;;;;;;;5111642;28;20613;-68
2022/05/10 09:43:29;;;;;;;12.50;5.40;;;;;;;;;;5093337;28;20193;-68
2022/05/10 09:46:12;;;;;;;22.25;8.13;;;;;;;;;;5116009;27;20437;-67
2022/05/10 09:48:42;;;;;;;23.00;8.27;;;;;;;;;;5109575;27;20089;-68
2022/05/10 09:51:20;;;;;;;18.95;7.15;;;;;;;;;;5111201;27;20350;-67
2022/05/10 09:53:46;;;;;;;14.20;6.18;;;;;;;;;;5110815;27;20127;-68
2022/05/10 09:56:28;;;;;;;17.75;6.93;;;;;;;;;;5109942;28;20055;-68
2022/05/10 09:59:28;;;;;;;18.00;6.60;;;;;;;;;;5086410;28;20126;-68
2022/05/10 10:01:56;;;;;;;11.60;7.20;;;;;;;;;;5087489;27;20603;-68
2022/05/10 10:04:33;;;;;;;20.65;7.65;;;;;;;;;;5108487;28;20047;-68
2022/05/10 10:07:05;;;;;;;11.32;7.45;;;;;;;;;;5107637;28;20040;-67
2022/05/10 10:09:32;;;;;;;13.63;7.10;;;;;;;;;;5117030;27;20039;-67
2022/05/10 10:12:00;;;;;;;14.52;7.35;;;;;;;;;;5111950;27;20050;-67
2022/05/10 10:14:36;;;;;;;11.73;7.88;;;;;;;;;;5108335;28;20092;-68
2022/05/10 10:17:03;;;;;;;12.05;7.65;;;;;;;;;;5108618;28;20079;-67
2022/05/10 10:19:33;;;;;;;13.43;7.72;;;;;;;;;;5107561;28;20048;-67
2022/05/10 10:22:05;;;;;;;13.07;7.38;;;;;;;;;;5109553;28;20031;-67
2022/05/10 10:24:52;;;;;;;9.88;7.85;;;;;;;;;;5092719;28;20449;-68
2022/05/10 10:27:36;;;;;;;9.93;8.07;;;;;;;;;;5114105;27;20100;-68
2022/05/10 10:30:08;;;;;;;16.33;7.70;;;;;;;;;;5111460;28;20188;-69
2022/05/10 10:32:37;;;;;;;11.93;6.82;;;;;;;;;;5105855;28;20044;-68
2022/05/10 10:35:10;;;;;;;10.63;7.65;;;;;;;;;;5114162;27;20122;-67
2022/05/10 10:37:56;;;;;;;11.30;8.35;;;;;;;;;;5096609;27;20044;-68
2022/05/10 10:40:27;;;;;;;10.48;7.72;;;;;;;;;;5107868;27;20075;-68
2022/05/10 10:42:53;;;;;;;11.85;8.52;;;;;;;;;;5113146;27;20288;-67
2022/05/10 10:45:22;;;;;;;16.85;9.60;;;;;;;;;;5114602;27;20393;-68
2022/05/10 10:47:51;;;;;;;20.52;9.18;;;;;;;;;;5111971;27;20059;-68
2022/05/10 10:50:28;;;;;;;13.30;8.70;;;;;;;;;;5105679;27;20071;-66
2022/05/10 10:52:56;;;;;;;11.65;8.15;;;;;;;;;;5103089;28;20046;-67
2022/05/10 10:55:48;;;;;;;12.02;8.77;;;;;;;;;;5109094;28;20108;-67
2022/05/10 10:58:27;;;;;;;17.50;9.60;;;;;;;;;;5101710;28;20056;-66
2022/05/10 11:00:53;;;;;;;15.68;8.55;;;;;;;;;;5111359;27;20087;-67
2022/05/10 11:03:31;;;;;;;14.68;9.55;;;;;;;;;;5108638;27;20506;-67
2022/05/10 11:06:06;;;;;;;14.82;8.13;;;;;;;;;;5106762;27;20047;-67
2022/05/10 11:08:42;;;;;;;12.82;7.45;;;;;;;;;;5116199;27;20039;-67
2022/05/10 11:11:08;;;;;;;12.57;7.10;;;;;;;;;;5102152;27;20040;-67
2022/05/10 11:13:54;;;;;;;8.60;6.18;;;;;;;;;;5104846;27;20074;-68
2022/05/10 11:16:34;;;;;;;13.02;5.78;;;;;;;;;;5114152;27;20051;-68
2022/05/10 11:19:00;;;;;;;14.68;6.18;;;;;;;;;;5095839;28;20597;-69
2022/05/10 11:21:38;;;;;;;12.13;5.43;;;;;;;;;;5111648;27;20114;-67
2022/05/10 11:24:23;;;;;;;10.02;5.28;;;;;;;;;;5114437;27;20082;-68
2022/05/10 11:27:08;;;;;;;13.68;6.22;;;;;;;;;;5107885;28;20050;-67
2022/05/10 11:29:37;;;;;;;13.50;5.88;;;;;;;;;;5108699;28;20043;-67
2022/05/10 11:32:19;;;;;;;11.63;4.95;;;;;;;;;;5102755;28;20085;-67
2022/05/10 11:34:56;;;;;;;9.53;5.43;;;;;;;;;;5099574;28;20122;-70
2022/05/10 11:37:27;;;;;;;9.82;4.47;;;;;;;;;;5106340;28;20172;-69
2022/05/10 11:40:02;;;;;;;10.73;5.32;;;;;;;;;;5107352;28;20046;-69
2022/05/10 11:42:32;;;;;;;9.77;4.90;;;;;;;;;;5104689;27;20035;-69
2022/05/10 11:44:59;;;;;;;16.55;5.95;;;;;;;;;;5088788;28;20062;-70
2022/05/10 11:47:28;;;;;;;7.03;4.28;;;;;;;;;;5111982;27;20397;-69
2022/05/10 11:49:54;;;;;;;13.73;3.72;;;;;;;;;;5113012;27;20400;-69
2022/05/10 11:52:39;;;;;;;9.75;3.85;;;;;;;;;;5110587;27;20059;-69
2022/05/10 11:55:25;;;;;;;5.55;3.03;;;;;;;;;;5094143;28;20067;-69
2022/05/10 11:57:58;;;;;;;6.22;3.25;;;;;;;;;;5106914;28;20050;-68
2022/05/10 12:00:27;;;;;;;17.77;4.38;;;;;;;;;;5106629;28;20072;-69
2022/05/10 12:02:57;;;;;;;7.60;3.35;;;;;;;;;;5093687;28;20122;-68
2022/05/10 12:05:30;;;;;;;12.73;3.13;;;;;;;;;;5105798;28;20036;-68
2022/05/10 12:07:58;;;;;;;13.13;3.95;;;;;;;;;;5108678;28;20043;-69
2022/05/10 12:10:30;;;;;;;11.13;4.57;;;;;;;;;;5108215;28;20040;-68
2022/05/10 12:12:58;;;;;;;5.43;3.03;;;;;;;;;;5106648;28;20088;-70
2022/05/10 12:21:39;;;;;;;10.90;2.28;;;;;;;;;;5104839;28;20131;-68
2022/05/10 12:24:14;;;;;;;11.45;2.40;;;;;;;;;;5089397;28;20043;-68
2022/05/10 12:26:44;;;;;;;28.50;3.08;;;;;;;;;;5107540;28;20135;-68
2022/05/10 12:29:30;;;;;;;9.98;2.28;;;;;;;;;;5088330;28;20040;-68
2022/05/10 12:32:04;;;;;;;4.05;1.67;;;;;;;;;;5091752;28;20052;-68
2022/05/10 12:34:47;;;;;;;6.45;1.88;;;;;;;;;;5110469;28;20043;-68
2022/05/10 12:37:31;;;;;;;16.08;3.38;;;;;;;;;;5114316;27;20039;-68
2022/05/10 12:39:57;;;;;;;4.47;1.70;;;;;;;;;;5097683;28;20078;-68
2022/05/10 12:42:27;;;;;;;6.50;1.63;;;;;;;;;;5096558;28;20067;-68
2022/05/10 12:45:17;;;;;;;4.82;1.50;;;;;;;;;;5112222;27;20563;-68
2022/05/10 12:47:47;;;;;;;5.47;1.40;;;;;;;;;;5106849;27;20044;-68
2022/05/10 12:50:45;;;;;;;2.97;1.38;;;;;;;;;;5111652;28;20524;-68
2022/05/10 12:53:32;;;;;;;5.10;1.45;;;;;;;;;;5089090;27;20043;-68
2022/05/10 12:56:14;;;;;;;3.75;1.88;;;;;;;;;;5107216;27;20522;-68
2022/05/10 12:58:43;;;;;;;5.18;2.05;;;;;;;;;;5117039;27;20047;-68
2022/05/10 13:01:11;;;;;;;5.05;1.85;;;;;;;;;;5105003;28;20414;-68
2022/05/10 13:03:45;;;;;;;6.57;1.95;;;;;;;;;;5111030;28;20043;-68
2022/05/10 13:06:14;;;;;;;5.65;2.65;;;;;;;;;;5111091;28;20235;-68
2022/05/10 13:08:56;;;;;;;15.95;3.50;;;;;;;;;;5111128;28;20035;-68
2022/05/10 13:11:25;;;;;;;8.57;3.45;;;;;;;;;;5111165;28;20044;-68
2022/05/10 13:13:53;;;;;;;6.30;3.83;;;;;;;;;;5111169;28;20500;-67
2022/05/10 13:16:20;;;;;;;8.43;3.40;;;;;;;;;;5107121;27;20047;-68
2022/05/10 13:18:48;;;;;;;8.98;2.60;;;;;;;;;;5111984;27;20417;-68
2022/05/10 13:21:21;;;;;;;7.07;2.95;;;;;;;;;;5109673;28;20041;-67
2022/05/10 13:23:47;;;;;;;6.70;2.30;;;;;;;;;;5111247;28;20629;-67
2022/05/10 13:26:15;;;;;;;5.53;3.22;;;;;;;;;;5110666;28;20074;-67
2022/05/10 13:28:52;;;;;;;6.50;2.95;;;;;;;;;;5102278;27;20342;-67
2022/05/10 13:31:20;;;;;;;6.78;2.60;;;;;;;;;;5111507;27;21090;-67
2022/05/10 13:33:47;;;;;;;7.55;2.80;;;;;;;;;;5109468;27;20070;-68
2022/05/10 13:36:14;;;;;;;4.88;2.80;;;;;;;;;;5117123;27;20087;-68
2022/05/10 13:38:41;;;;;;;8.85;3.70;;;;;;;;;;5115108;27;20043;-68
2022/05/10 13:41:09;;;;;;;6.68;2.75;;;;;;;;;;5111297;27;20075;-67
2022/05/10 13:43:44;;;;;;;13.43;3.53;;;;;;;;;;5110173;28;20047;-68
2022/05/10 13:46:18;;;;;;;7.15;2.95;;;;;;;;;;5110190;28;20104;-68
2022/05/10 13:48:52;;;;;;;8.55;3.00;;;;;;;;;;5087038;28;20067;-67
2022/05/10 13:51:21;;;;;;;7.55;3.30;;;;;;;;;;5110349;27;20047;-67
2022/05/10 13:53:56;;;;;;;4.70;2.92;;;;;;;;;;5093541;28;20212;-68
2022/05/10 13:56:32;;;;;;;9.27;3.97;;;;;;;;;;5107547;28;20039;-67
2022/05/10 13:58:58;;;;;;;5.13;2.90;;;;;;;;;;5107666;27;20047;-67
2022/05/10 14:01:34;;;;;;;5.47;2.97;;;;;;;;;;5112749;27;20050;-67
2022/05/10 14:04:04;;;;;;;6.68;2.80;;;;;;;;;;5109483;27;20035;-67
2022/05/10 14:06:32;;;;;;;6.55;3.05;;;;;;;;;;5111732;28;20334;-67
2022/05/10 14:09:02;;;;;;;10.90;3.15;;;;;;;;;;5110733;28;20047;-68
2022/05/10 14:11:28;;;;;;;5.57;2.90;;;;;;;;;;5096832;27;20496;-68
2022/05/10 14:13:55;;;;;;;11.38;3.78;;;;;;;;;;5111722;27;20074;-67
2022/05/10 14:16:32;;;;;;;7.85;3.05;;;;;;;;;;5116472;27;20044;-67
2022/05/10 14:18:58;;;;;;;4.72;2.80;;;;;;;;;;5106771;27;20048;-67
2022/05/10 14:21:27;;;;;;;6.78;2.95;;;;;;;;;;5117139;27;20471;-67
2022/05/10 14:23:54;;;;;;;6.15;2.42;;;;;;;;;;5114216;27;20153;-67
2022/05/10 14:26:35;;;;;;;10.15;2.55;;;;;;;;;;5113756;27;20092;-67
2022/05/10 14:29:11;;;;;;;8.15;3.47;;;;;;;;;;5114356;27;20046;-68
2022/05/10 14:31:38;;;;;;;4.97;2.50;;;;;;;;;;5099358;27;20088;-68
2022/05/10 14:34:05;;;;;;;5.28;2.58;;;;;;;;;;5108139;28;20040;-67
2022/05/10 14:36:38;;;;;;;9.05;2.58;;;;;;;;;;5114386;27;20044;-67
2022/05/10 14:39:08;;;;;;;5.15;2.53;;;;;;;;;;5109381;27;20393;-67
2022/05/10 14:41:44;;;;;;;10.55;3.28;;;;;;;;;;5111607;27;20031;-67
2022/05/10 14:44:18;;;;;;;5.10;2.30;;;;;;;;;;5110182;28;20044;-67
2022/05/10 14:46:53;;;;;;;5.03;2.80;;;;;;;;;;5109791;28;20047;-67
2022/05/10 14:49:35;;;;;;;6.93;3.08;;;;;;;;;;5104020;27;20028;-68
2022/05/10 14:52:03;;;;;;;5.80;2.20;;;;;;;;;;5109227;28;20277;-67
2022/05/10 14:54:35;;;;;;;8.10;2.97;;;;;;;;;;5110904;27;20032;-68
2022/05/10 14:57:02;;;;;;;7.07;3.17;;;;;;;;;;5114438;27;20039;-67
2022/05/10 14:59:51;;;;;;;7.15;2.72;;;;;;;;;;5110424;27;20089;-67
2022/05/10 15:02:23;;;;;;;6.07;3.13;;;;;;;;;;5112836;27;20047;-67
2022/05/10 15:04:49;;;;;;;7.10;2.60;;;;;;;;;;5112513;27;20035;-68
2022/05/10 15:07:15;;;;;;;5.93;2.13;;;;;;;;;;5109899;28;20035;-67
2022/05/10 15:09:41;;;;;;;4.63;2.22;;;;;;;;;;5091630;28;20047;-67